Terminal Aerodrome Forecast
Issued by NWS

Home | Current Version | Previous Version | Text Only | Print | Product List | Glossary On
Versions: 1 2 3 4 5 6 7 8 9 10 11 12 13 14 15 16
203
FTUS43 KMPX 180430 AAB
TAFRNH
TAF AMD
KRNH 180430Z 1805/1824 34004KT 3SM BR OVC003
     FM180700 34005KT 4SM BR BKN008
     FM181200 34009KT P6SM BKN015
     FM181500 33011KT P6SM BKN150
     FM182100 32015G23KT P6SM BKN030
     FM182200 32015G23KT P6SM SCT015=

USA.gov is the U.S. government's official web portal to all federal, state and local government web resources and services.